| time (UTC) | temp F | wind direction | speed MPH | gust MPH | rain 1hr in | rain 24hr in | rain mn in | humidity % | barometer mb |
| 20260510230448 | 77 | 38 | 1.0 | 0.0 | 0.00 | 0.00 | 0.00 | 88 | 1006.3 |
| 20260510230420 | 77 | 38 | 1.0 | 0.0 | 0.00 | 0.00 | 0.00 | 88 | 1006.3 |
| 20260510225447 | 77 | 5 | 2.0 | 0.0 | 0.00 | 0.00 | 0.00 | 90 | 1005.9 |
| 20260510225419 | 77 | 60 | 0.0 | 0.0 | 0.00 | 0.00 | 0.00 | 90 | 1005.9 |
| 20260510224446 | 77 | 86 | 1.0 | 0.0 | 0.00 | 0.00 | 0.00 | 91 | 1005.9 |
| 20260510224419 | 77 | 116 | 1.0 | 0.0 | 0.00 | 0.00 | 0.00 | 91 | 1005.9 |
| 20260510223446 | 77 | 142 | 3.0 | 0.0 | 0.00 | 0.00 | 0.00 | 90 | 1006.3 |
| 20260510223418 | 77 | 90 | 1.0 | 0.0 | 0.00 | 0.00 | 0.00 | 90 | 1006.3 |
| 20260510222445 | 77 | 115 | 3.0 | 0.0 | 0.00 | 0.00 | 0.00 | 87 | 1006.3 |
| 20260510222418 | 77 | 115 | 3.0 | 0.0 | 0.00 | 0.00 | 0.00 | 87 | 1006.3 |
| 20260510221444 | 78 | 33 | 2.0 | 0.0 | 0.00 | 0.00 | 0.00 | 86 | 1006.3 |
| 20260510221417 | 78 | 33 | 2.0 | 0.0 | 0.00 | 0.00 | 0.00 | 86 | 1006.3 |
| 20260510220444 | 76 | 34 | 1.0 | 0.0 | 0.00 | 0.00 | 0.00 | 90 | 1005.9 |
| 20260510220417 | 76 | 34 | 1.0 | 0.0 | 0.00 | 0.00 | 0.00 | 90 | 1005.9 |
| 20260510215443 | 76 | 59 | 2.0 | 0.0 | 0.00 | 0.00 | 0.00 | 91 | 1006.3 |
| 20260510215416 | 75 | 20 | 2.0 | 0.0 | 0.00 | 0.00 | 0.00 | 92 | 1006.3 |
| 20260510214443 | 76 | 63 | 1.0 | 0.0 | 0.00 | 0.00 | 0.00 | 95 | 1006.3 |
| 20260510214416 | 76 | 47 | 1.0 | 0.0 | 0.00 | 0.00 | 0.00 | 95 | 1006.3 |
| 20260510213442 | 75 | 30 | 0.0 | 0.0 | 0.00 | 0.00 | 0.00 | 96 | 1006.3 |
| 20260510213415 | 75 | 133 | 7.0 | 0.0 | 0.00 | 0.00 | 0.00 | 95 | 1006.3 |
| 20260510212441 | 80 | 350 | 1.0 | 0.0 | 0.00 | 0.00 | 0.00 | 78 | 1005.9 |
| 20260510212414 | 80 | 350 | 1.0 | 0.0 | 0.00 | 0.00 | 0.00 | 78 | 1005.9 |
| 20260510211441 | 83 | 336 | 7.0 | 0.0 | 0.00 | 0.00 | 0.00 | 77 | 1005.9 |
| 20260510211413 | 83 | 336 | 7.0 | 0.0 | 0.00 | 0.00 | 0.00 | 77 | 1005.9 |
| 20260510210440 | 84 | 50 | 5.0 | 0.0 | 0.00 | 0.00 | 0.00 | 75 | 1005.6 |
| 20260510210413 | 84 | 50 | 5.0 | 0.0 | 0.00 | 0.00 | 0.00 | 75 | 1005.6 |
| 20260510205439 | 87 | 34 | 2.0 | 0.0 | 0.00 | 0.00 | 0.00 | 68 | 1005.6 |
| 20260510205412 | 87 | 55 | 1.0 | 0.0 | 0.00 | 0.00 | 0.00 | 69 | 1005.6 |
| 20260510204439 | 88 | 342 | 1.0 | 0.0 | 0.00 | 0.00 | 0.00 | 66 | 1005.6 |
| 20260510204412 | 87 | 41 | 2.0 | 0.0 | 0.00 | 0.00 | 0.00 | 66 | 1005.6 |
| 20260510203439 | 89 | 97 | 2.0 | 0.0 | 0.00 | 0.00 | 0.00 | 61 | 1005.6 |
| 20260510203411 | 89 | 97 | 2.0 | 0.0 | 0.00 | 0.00 | 0.00 | 61 | 1005.6 |
| 20260510202438 | 92 | 94 | 1.0 | 0.0 | 0.00 | 0.00 | 0.00 | 56 | 1005.6 |
| 20260510202411 | 92 | 94 | 1.0 | 0.0 | 0.00 | 0.00 | 0.00 | 56 | 1005.6 |
| 20260510201437 | 95 | 22 | 1.0 | 0.0 | 0.00 | 0.00 | 0.00 | 45 | 1005.6 |
| 20260510201410 | 95 | 22 | 1.0 | 0.0 | 0.00 | 0.00 | 0.00 | 45 | 1005.6 |
| 20260510200437 | 95 | 26 | 4.0 | 0.0 | 0.00 | 0.00 | 0.00 | 43 | 1005.3 |
| 20260510200409 | 95 | 26 | 4.0 | 0.0 | 0.00 | 0.00 | 0.00 | 43 | 1005.3 |
| 20260510195436 | 96 | 66 | 1.0 | 0.0 | 0.00 | 0.00 | 0.00 | 44 | 1005.3 |
| 20260510195409 | 95 | 52 | 2.0 | 0.0 | 0.00 | 0.00 | 0.00 | 43 | 1005.3 |
| 20260510194436 | 96 | 277 | 1.0 | 0.0 | 0.00 | 0.00 | 0.00 | 42 | 1005.3 |
| 20260510194408 | 96 | 256 | 2.0 | 0.0 | 0.00 | 0.00 | 0.00 | 42 | 1005.3 |
| 20260510193435 | 97 | 306 | 1.0 | 0.0 | 0.00 | 0.00 | 0.00 | 41 | 1005.3 |
| 20260510193407 | 97 | 306 | 1.0 | 0.0 | 0.00 | 0.00 | 0.00 | 41 | 1005.3 |
| 20260510192435 | 95 | 10 | 2.0 | 0.0 | 0.00 | 0.00 | 0.00 | 43 | 1005.6 |
| 20260510192407 | 95 | 10 | 2.0 | 0.0 | 0.00 | 0.00 | 0.00 | 43 | 1005.6 |
| 20260510191434 | 100 | 31 | 1.0 | 0.0 | 0.00 | 0.00 | 0.00 | 38 | 1005.6 |
| 20260510191406 | 100 | 31 | 1.0 | 0.0 | 0.00 | 0.00 | 0.00 | 38 | 1005.6 |
| 20260510190434 | 101 | 33 | 2.0 | 0.0 | 0.00 | 0.00 | 0.00 | 36 | 1005.6 |
| 20260510190406 | 101 | 242 | 2.0 | 0.0 | 0.00 | 0.00 | 0.00 | 35 | 1005.6 |
| 20260510185433 | 102 | 219 | 2.0 | 0.0 | 0.00 | 0.00 | 0.00 | 36 | 1005.6 |
| 20260510185405 | 101 | 296 | 3.0 | 0.0 | 0.00 | 0.00 | 0.00 | 37 | 1005.6 |
| 20260510184433 | 98 | 223 | 2.0 | 0.0 | 0.00 | 0.00 | 0.00 | 39 | 1005.6 |
| 20260510184404 | 98 | 27 | 3.0 | 0.0 | 0.00 | 0.00 | 0.00 | 41 | 1005.6 |
| 20260510183432 | 97 | 311 | 4.0 | 0.0 | 0.00 | 0.00 | 0.00 | 39 | 1005.9 |
| 20260510183404 | 97 | 311 | 4.0 | 0.0 | 0.00 | 0.00 | 0.00 | 39 | 1005.9 |
| 20260510182432 | 98 | 40 | 2.0 | 0.0 | 0.00 | 0.00 | 0.00 | 41 | 1005.9 |
| 20260510182403 | 98 | 40 | 2.0 | 0.0 | 0.00 | 0.00 | 0.00 | 41 | 1005.9 |
| 20260510181431 | 95 | 308 | 3.0 | 0.0 | 0.00 | 0.00 | 0.00 | 43 | 1005.9 |
| 20260510181403 | 95 | 308 | 3.0 | 0.0 | 0.00 | 0.00 | 0.00 | 43 | 1005.9 |
| 20260510180430 | 94 | 32 | 2.0 | 0.0 | 0.00 | 0.00 | 0.00 | 42 | 1006.3 |
| 20260510180402 | 94 | 11 | 2.0 | 0.0 | 0.00 | 0.00 | 0.00 | 41 | 1006.3 |
| 20260510175430 | 97 | 333 | 1.0 | 0.0 | 0.00 | 0.00 | 0.00 | 43 | 1006.3 |
| 20260510175402 | 96 | 79 | 2.0 | 0.0 | 0.00 | 0.00 | 0.00 | 45 | 1006.3 |
| 20260510174429 | 98 | 300 | 4.0 | 0.0 | 0.00 | 0.00 | 0.00 | 42 | 1006.3 |
| 20260510174401 | 98 | 31 | 1.0 | 0.0 | 0.00 | 0.00 | 0.00 | 44 | 1006.3 |
| 20260510173429 | 94 | 242 | 4.0 | 0.0 | 0.00 | 0.00 | 0.00 | 46 | 1006.3 |
| 20260510173401 | 94 | 242 | 4.0 | 0.0 | 0.00 | 0.00 | 0.00 | 46 | 1006.3 |
| 20260510172428 | 94 | 350 | 3.0 | 0.0 | 0.00 | 0.00 | 0.00 | 47 | 1006.6 |
| 20260510172400 | 94 | 350 | 3.0 | 0.0 | 0.00 | 0.00 | 0.00 | 47 | 1006.6 |
| 20260510171428 | 94 | 42 | 2.0 | 0.0 | 0.00 | 0.00 | 0.00 | 46 | 1006.6 |
| 20260510171359 | 94 | 42 | 2.0 | 0.0 | 0.00 | 0.00 | 0.00 | 46 | 1006.6 |
| 20260510170427 | 95 | 34 | 4.0 | 0.0 | 0.00 | 0.00 | 0.00 | 44 | 1006.6 |
| 20260510170359 | 96 | 308 | 2.0 | 0.0 | 0.00 | 0.00 | 0.00 | 43 | 1006.6 |
| 20260510165427 | 96 | 180 | 5.0 | 0.0 | 0.00 | 0.00 | 0.00 | 44 | 1007.3 |
| 20260510165358 | 96 | 331 | 5.0 | 0.0 | 0.00 | 0.00 | 0.00 | 43 | 1007.3 |
| 20260510164426 | 95 | 217 | 8.0 | 0.0 | 0.00 | 0.00 | 0.00 | 46 | 1007.3 |
| 20260510164357 | 95 | 217 | 8.0 | 0.0 | 0.00 | 0.00 | 0.00 | 46 | 1007.3 |
| 20260510163426 | 97 | 302 | 1.0 | 0.0 | 0.00 | 0.00 | 0.00 | 47 | 1007.6 |
| 20260510163357 | 97 | 302 | 1.0 | 0.0 | 0.00 | 0.00 | 0.00 | 47 | 1007.6 |
| 20260510162425 | 93 | 357 | 2.0 | 0.0 | 0.00 | 0.00 | 0.00 | 50 | 1007.6 |
| 20260510162356 | 93 | 357 | 2.0 | 0.0 | 0.00 | 0.00 | 0.00 | 50 | 1007.6 |
| 20260510161425 | 94 | 242 | 6.0 | 0.0 | 0.00 | 0.00 | 0.00 | 48 | 1007.6 |
| 20260510161356 | 95 | 272 | 4.0 | 0.0 | 0.00 | 0.00 | 0.00 | 48 | 1007.6 |
| 20260510160424 | 94 | 133 | 2.0 | 0.0 | 0.00 | 0.00 | 0.00 | 50 | 1007.6 |
| 20260510160355 | 94 | 331 | 2.0 | 0.0 | 0.00 | 0.00 | 0.00 | 51 | 1007.6 |
| 20260510155424 | 95 | 357 | 3.0 | 0.0 | 0.00 | 0.00 | 0.00 | 50 | 1007.6 |
| 20260510155355 | 96 | 296 | 4.0 | 0.0 | 0.00 | 0.00 | 0.00 | 48 | 1007.6 |
| 20260510154423 | 93 | 167 | 2.0 | 0.0 | 0.00 | 0.00 | 0.00 | 53 | 1007.6 |
| 20260510154354 | 93 | 167 | 2.0 | 0.0 | 0.00 | 0.00 | 0.00 | 53 | 1007.6 |
| 20260510153422 | 93 | 155 | 2.0 | 0.0 | 0.00 | 0.00 | 0.00 | 55 | 1007.6 |
| 20260510153353 | 93 | 155 | 2.0 | 0.0 | 0.00 | 0.00 | 0.00 | 55 | 1007.6 |
| 20260510152422 | 93 | 346 | 2.0 | 0.0 | 0.00 | 0.00 | 0.00 | 52 | 1007.6 |
| 20260510152353 | 93 | 346 | 2.0 | 0.0 | 0.00 | 0.00 | 0.00 | 52 | 1007.6 |
| 20260510151421 | 90 | 48 | 3.0 | 0.0 | 0.00 | 0.00 | 0.00 | 59 | 1007.6 |
| 20260510151352 | 92 | 108 | 1.0 | 0.0 | 0.00 | 0.00 | 0.00 | 58 | 1007.6 |
| 20260510150421 | 88 | 9 | 2.0 | 0.0 | 0.00 | 0.00 | 0.00 | 63 | 1007.6 |
| 20260510150352 | 88 | 183 | 1.0 | 0.0 | 0.00 | 0.00 | 0.00 | 63 | 1007.6 |
| 20260510145420 | 87 | 325 | 2.0 | 0.0 | 0.00 | 0.00 | 0.00 | 65 | 1007.3 |
| 20260510145351 | 87 | 245 | 1.0 | 0.0 | 0.00 | 0.00 | 0.00 | 64 | 1007.3 |
| 20260510144420 | 86 | 29 | 1.0 | 0.0 | 0.00 | 0.00 | 0.00 | 67 | 1007.3 |
| 20260510144350 | 86 | 29 | 1.0 | 0.0 | 0.00 | 0.00 | 0.00 | 67 | 1007.3 |
| 20260510143419 | 86 | 0 | 2.0 | 0.0 | 0.00 | 0.00 | 0.00 | 67 | 1007.3 |
| 20260510143350 | 86 | 0 | 2.0 | 0.0 | 0.00 | 0.00 | 0.00 | 67 | 1007.3 |
| 20260510142419 | 87 | 18 | 1.0 | 0.0 | 0.00 | 0.00 | 0.00 | 66 | 1007.3 |
| 20260510142349 | 87 | 18 | 1.0 | 0.0 | 0.00 | 0.00 | 0.00 | 66 | 1007.3 |
| 20260510141418 | 85 | 43 | 1.0 | 0.0 | 0.00 | 0.00 | 0.00 | 70 | 1007.3 |
| 20260510141349 | 85 | 31 | 1.0 | 0.0 | 0.00 | 0.00 | 0.00 | 71 | 1007.3 |
| 20260510140418 | 86 | 25 | 2.0 | 0.0 | 0.00 | 0.00 | 0.00 | 69 | 1006.6 |
| 20260510140348 | 86 | 85 | 5.0 | 0.0 | 0.00 | 0.00 | 0.00 | 69 | 1006.6 |
| 20260510135417 | 83 | 118 | 3.0 | 0.0 | 0.00 | 0.00 | 0.00 | 73 | 1006.6 |
| 20260510135348 | 83 | 118 | 3.0 | 0.0 | 0.00 | 0.00 | 0.00 | 73 | 1006.6 |
| 20260510134417 | 83 | 225 | 2.0 | 0.0 | 0.00 | 0.00 | 0.00 | 75 | 1006.3 |
| 20260510134347 | 83 | 225 | 2.0 | 0.0 | 0.00 | 0.00 | 0.00 | 75 | 1006.3 |
| 20260510133416 | 82 | 182 | 3.0 | 0.0 | 0.00 | 0.00 | 0.00 | 77 | 1006.3 |
| 20260510133346 | 82 | 182 | 3.0 | 0.0 | 0.00 | 0.00 | 0.00 | 77 | 1006.3 |
| 20260510132415 | 81 | 189 | 2.0 | 0.0 | 0.00 | 0.00 | 0.00 | 81 | 1006.3 |
| 20260510132346 | 81 | 189 | 2.0 | 0.0 | 0.00 | 0.00 | 0.00 | 81 | 1006.3 |
| 20260510131415 | 82 | 203 | 2.0 | 0.0 | 0.00 | 0.00 | 0.00 | 80 | 1006.3 |
| 20260510131345 | 82 | 213 | 1.0 | 0.0 | 0.00 | 0.00 | 0.00 | 79 | 1006.3 |
| 20260510130415 | 81 | 212 | 3.0 | 0.0 | 0.00 | 0.00 | 0.00 | 82 | 1006.3 |
| 20260510130345 | 81 | 198 | 9.0 | 0.0 | 0.00 | 0.00 | 0.00 | 80 | 1006.3 |
| 20260510125414 | 81 | 131 | 1.0 | 0.0 | 0.00 | 0.00 | 0.00 | 84 | 1006.3 |
| 20260510125344 | 81 | 131 | 1.0 | 0.0 | 0.00 | 0.00 | 0.00 | 84 | 1006.3 |
| 20260510124413 | 80 | 151 | 3.0 | 0.0 | 0.00 | 0.00 | 0.00 | 86 | 1005.9 |
| 20260510124344 | 80 | 151 | 3.0 | 0.0 | 0.00 | 0.00 | 0.00 | 86 | 1005.9 |
| 20260510123413 | 77 | 174 | 5.0 | 0.0 | 0.00 | 0.00 | 0.00 | 91 | 1005.9 |
| 20260510123343 | 77 | 174 | 5.0 | 0.0 | 0.00 | 0.00 | 0.00 | 91 | 1005.9 |
| 20260510122413 | 77 | 55 | 3.0 | 0.0 | 0.00 | 0.00 | 0.00 | 93 | 1005.9 |
| 20260510122343 | 77 | 55 | 3.0 | 0.0 | 0.00 | 0.00 | 0.00 | 93 | 1005.9 |
| 20260510121412 | 76 | 173 | 3.0 | 0.0 | 0.00 | 0.00 | 0.00 | 94 | 1005.9 |
| 20260510121342 | 76 | 145 | 3.0 | 0.0 | 0.00 | 0.00 | 0.00 | 94 | 1005.9 |
| 20260510120411 | 76 | 63 | 1.0 | 0.0 | 0.00 | 0.00 | 0.00 | 95 | 1005.9 |
| 20260510120342 | 75 | 220 | 2.0 | 0.0 | 0.00 | 0.00 | 0.00 | 96 | 1005.9 |
| 20260510115411 | 75 | 182 | 3.0 | 0.0 | 0.00 | 0.00 | 0.00 | 98 | 1005.9 |
| 20260510115341 | 75 | 99 | 3.0 | 0.0 | 0.00 | 0.00 | 0.00 | 98 | 1005.9 |
| 20260510114410 | 74 | 173 | 3.0 | 0.0 | 0.00 | 0.00 | 0.00 | 99 | 1005.6 |
| 20260510114340 | 74 | 173 | 3.0 | 0.0 | 0.00 | 0.00 | 0.00 | 99 | 1005.6 |
| 20260510113410 | 74 | 41 | 0.0 | 0.0 | 0.00 | 0.00 | 0.00 | 99 | 1005.6 |
| 20260510113339 | 74 | 41 | 0.0 | 0.0 | 0.00 | 0.00 | 0.00 | 99 | 1005.6 |
| 20260510112409 | 73 | 0 | 1.0 | 0.0 | 0.00 | 0.00 | 0.00 | 99 | 1005.6 |
| 20260510112339 | 73 | 0 | 1.0 | 0.0 | 0.00 | 0.00 | 0.00 | 99 | 1005.6 |
| 20260510111409 | 73 | 8 | 1.0 | 0.0 | 0.00 | 0.00 | 0.00 | 99 | 1005.6 |
| 20260510111338 | 73 | 10 | 1.0 | 0.0 | 0.00 | 0.00 | 0.00 | 99 | 1005.6 |
| 20260510110408 | 73 | 20 | 0.0 | 0.0 | 0.00 | 0.00 | 0.00 | 99 | 1005.3 |
| 20260510110338 | 73 | 20 | 0.0 | 0.0 | 0.00 | 0.00 | 0.00 | 99 | 1005.3 |
| 20260510105407 | 73 | 33 | 0.0 | 0.0 | 0.00 | 0.00 | 0.00 | 99 | 1005.3 |
| 20260510105337 | 73 | 33 | 0.0 | 0.0 | 0.00 | 0.00 | 0.00 | 99 | 1005.3 |
| 20260510104407 | 72 | 28 | 0.0 | 0.0 | 0.00 | 0.00 | 0.00 | 99 | 1004.9 |
| 20260510104337 | 72 | 28 | 0.0 | 0.0 | 0.00 | 0.00 | 0.00 | 99 | 1004.9 |
| 20260510103406 | 72 | 28 | 0.0 | 0.0 | 0.00 | 0.00 | 0.00 | 99 | 1004.9 |
| 20260510103336 | 72 | 28 | 0.0 | 0.0 | 0.00 | 0.00 | 0.00 | 99 | 1004.9 |
| 20260510102406 | 72 | 31 | 0.0 | 0.0 | 0.00 | 0.00 | 0.00 | 99 | 1004.6 |
| 20260510102336 | 72 | 31 | 0.0 | 0.0 | 0.00 | 0.00 | 0.00 | 99 | 1004.6 |
| 20260510101405 | 72 | 28 | 0.0 | 0.0 | 0.00 | 0.00 | 0.00 | 99 | 1004.6 |
| 20260510101335 | 72 | 26 | 0.0 | 0.0 | 0.00 | 0.00 | 0.00 | 99 | 1004.6 |
| 20260510100405 | 72 | 28 | 0.0 | 0.0 | 0.00 | 0.00 | 0.00 | 99 | 1004.6 |
| 20260510100335 | 72 | 28 | 0.0 | 0.0 | 0.00 | 0.00 | 0.00 | 99 | 1004.6 |
| 20260510095404 | 72 | 28 | 0.0 | 0.0 | 0.00 | 0.00 | 0.00 | 99 | 1003.9 |
| 20260510095334 | 72 | 28 | 0.0 | 0.0 | 0.00 | 0.00 | 0.00 | 99 | 1003.9 |
| 20260510094404 | 73 | 36 | 0.0 | 0.0 | 0.00 | 0.00 | 0.00 | 99 | 1004.6 |
| 20260510094333 | 73 | 36 | 0.0 | 0.0 | 0.00 | 0.00 | 0.00 | 99 | 1004.6 |
| 20260510093403 | 72 | 29 | 0.0 | 0.0 | 0.00 | 0.00 | 0.00 | 99 | 1004.6 |
| 20260510093333 | 72 | 29 | 0.0 | 0.0 | 0.00 | 0.00 | 0.00 | 99 | 1004.6 |
| 20260510092403 | 73 | 45 | 0.0 | 0.0 | 0.00 | 0.00 | 0.00 | 99 | 1004.6 |
| 20260510092332 | 73 | 45 | 0.0 | 0.0 | 0.00 | 0.00 | 0.00 | 99 | 1004.6 |
| 20260510091402 | 73 | 32 | 0.0 | 0.0 | 0.00 | 0.00 | 0.00 | 99 | 1004.6 |
| 20260510090402 | 73 | 28 | 0.0 | 0.0 | 0.00 | 0.00 | 0.00 | 99 | 1003.9 |
| 20260510090332 | 73 | 28 | 0.0 | 0.0 | 0.00 | 0.00 | 0.00 | 99 | 1003.9 |
| 20260510085401 | 73 | 28 | 0.0 | 0.0 | 0.00 | 0.00 | 0.00 | 99 | 1003.9 |
| 20260510085331 | 73 | 28 | 0.0 | 0.0 | 0.00 | 0.00 | 0.00 | 99 | 1003.9 |
| 20260510084401 | 73 | 28 | 0.0 | 0.0 | 0.00 | 0.00 | 0.00 | 98 | 1003.9 |
| 20260510084331 | 73 | 28 | 0.0 | 0.0 | 0.00 | 0.00 | 0.00 | 98 | 1003.9 |
| 20260510083400 | 73 | 24 | 0.0 | 0.0 | 0.00 | 0.00 | 0.00 | 98 | 1004.6 |
| 20260510083330 | 73 | 24 | 0.0 | 0.0 | 0.00 | 0.00 | 0.00 | 98 | 1004.6 |
| 20260510082359 | 73 | 48 | 0.0 | 0.0 | 0.00 | 0.00 | 0.00 | 98 | 1003.9 |
| 20260510082329 | 73 | 36 | 1.0 | 0.0 | 0.00 | 0.00 | 0.00 | 98 | 1003.9 |
| 20260510081359 | 73 | 15 | 0.0 | 0.0 | 0.00 | 0.00 | 0.00 | 97 | 1003.9 |
| 20260510081329 | 74 | 32 | 0.0 | 0.0 | 0.00 | 0.00 | 0.00 | 97 | 1003.9 |
| 20260510080358 | 74 | 19 | 0.0 | 0.0 | 0.00 | 0.00 | 0.00 | 97 | 1003.9 |
| 20260510080328 | 74 | 24 | 1.0 | 0.0 | 0.00 | 0.00 | 0.00 | 97 | 1003.9 |
| 20260510075358 | 74 | 82 | 1.0 | 0.0 | 0.00 | 0.00 | 0.00 | 97 | 1004.6 |
| 20260510075328 | 74 | 82 | 1.0 | 0.0 | 0.00 | 0.00 | 0.00 | 97 | 1004.6 |
| 20260510074357 | 74 | 86 | 1.0 | 0.0 | 0.00 | 0.00 | 0.00 | 97 | 1004.6 |
| 20260510074327 | 74 | 86 | 1.0 | 0.0 | 0.00 | 0.00 | 0.00 | 97 | 1004.6 |
| 20260510073357 | 74 | 29 | 0.0 | 0.0 | 0.00 | 0.00 | 0.00 | 97 | 1003.9 |
| 20260510073327 | 74 | 29 | 0.0 | 0.0 | 0.00 | 0.00 | 0.00 | 97 | 1003.9 |
| 20260510072356 | 74 | 30 | 0.0 | 0.0 | 0.00 | 0.00 | 0.00 | 97 | 1003.9 |
| 20260510072326 | 74 | 26 | 0.0 | 0.0 | 0.00 | 0.00 | 0.00 | 97 | 1003.9 |
| 20260510071325 | 74 | 53 | 1.0 | 0.0 | 0.00 | 0.00 | 0.00 | 96 | 1003.9 |
| 20260510070355 | 74 | 50 | 1.0 | 0.0 | 0.00 | 0.00 | 0.00 | 96 | 1003.9 |
| 20260510070325 | 74 | 50 | 1.0 | 0.0 | 0.00 | 0.00 | 0.00 | 96 | 1003.9 |
| 20260510065355 | 74 | 58 | 1.0 | 0.0 | 0.00 | 0.00 | 0.00 | 96 | 1004.6 |
| 20260510065325 | 74 | 58 | 1.0 | 0.0 | 0.00 | 0.00 | 0.00 | 96 | 1004.6 |
| 20260510064354 | 74 | 34 | 0.0 | 0.0 | 0.00 | 0.00 | 0.00 | 95 | 1004.6 |
| 20260510064324 | 74 | 34 | 0.0 | 0.0 | 0.00 | 0.00 | 0.00 | 95 | 1004.6 |
| 20260510063354 | 74 | 30 | 0.0 | 0.0 | 0.00 | 0.00 | 0.00 | 95 | 1004.6 |
| 20260510063323 | 74 | 30 | 0.0 | 0.0 | 0.00 | 0.00 | 0.00 | 95 | 1004.6 |
| 20260510062353 | 74 | 8 | 0.0 | 0.0 | 0.00 | 0.00 | 0.00 | 95 | 1004.6 |
| 20260510062323 | 74 | 31 | 0.0 | 0.0 | 0.00 | 0.00 | 0.00 | 95 | 1004.6 |
| 20260510061353 | 74 | 45 | 0.0 | 0.0 | 0.00 | 0.00 | 0.00 | 95 | 1004.6 |
| 20260510061322 | 74 | 46 | 0.0 | 0.0 | 0.00 | 0.00 | 0.00 | 95 | 1004.6 |
| 20260510060352 | 74 | 32 | 0.0 | 0.0 | 0.00 | 0.00 | 0.00 | 95 | 1004.9 |
| 20260510060322 | 74 | 32 | 0.0 | 0.0 | 0.00 | 0.00 | 0.00 | 95 | 1004.9 |
| 20260510055352 | 74 | 34 | 0.0 | 0.0 | 0.00 | 0.00 | 0.00 | 94 | 1005.3 |
| 20260510055321 | 74 | 34 | 0.0 | 0.0 | 0.00 | 0.00 | 0.00 | 94 | 1005.3 |
| 20260510054351 | 75 | 49 | 0.0 | 0.0 | 0.00 | 0.00 | 0.00 | 94 | 1005.3 |
| 20260510054321 | 75 | 49 | 0.0 | 0.0 | 0.00 | 0.00 | 0.00 | 94 | 1005.3 |
| 20260510053350 | 75 | 23 | 0.0 | 0.0 | 0.00 | 0.00 | 0.00 | 93 | 1005.3 |
| 20260510053320 | 75 | 23 | 0.0 | 0.0 | 0.00 | 0.00 | 0.00 | 93 | 1005.3 |
| 20260510052350 | 75 | 71 | 1.0 | 0.0 | 0.00 | 0.00 | 0.00 | 93 | 1005.6 |
| 20260510052319 | 75 | 80 | 0.0 | 0.0 | 0.00 | 0.00 | 0.00 | 93 | 1005.6 |
| 20260510051349 | 75 | 6 | 1.0 | 0.0 | 0.00 | 0.00 | 0.00 | 93 | 1005.6 |
| 20260510051319 | 75 | 24 | 0.0 | 0.0 | 0.00 | 0.00 | 0.00 | 93 | 1005.6 |
| 20260510050349 | 76 | 59 | 1.0 | 0.0 | 0.00 | 0.00 | 0.00 | 92 | 1005.6 |
| 20260510050318 | 76 | 59 | 1.0 | 0.0 | 0.00 | 0.00 | 0.00 | 92 | 1005.6 |
| 20260510045348 | 75 | 47 | 0.0 | 0.0 | 0.00 | 0.00 | 0.00 | 92 | 1005.6 |
| 20260510045317 | 75 | 47 | 0.0 | 0.0 | 0.00 | 0.00 | 0.00 | 92 | 1005.6 |
| 20260510044348 | 76 | 59 | 1.0 | 0.0 | 0.00 | 0.00 | 0.00 | 91 | 1005.6 |
| 20260510044317 | 76 | 59 | 1.0 | 0.0 | 0.00 | 0.00 | 0.00 | 91 | 1005.6 |
| 20260510043347 | 76 | 34 | 1.0 | 0.0 | 0.00 | 0.00 | 0.00 | 92 | 1005.6 |
| 20260510043316 | 76 | 46 | 0.0 | 0.0 | 0.00 | 0.00 | 0.00 | 92 | 1005.6 |
| 20260510042347 | 76 | 87 | 0.0 | 0.0 | 0.00 | 0.00 | 0.00 | 92 | 1005.6 |
| 20260510042316 | 76 | 65 | 1.0 | 0.0 | 0.00 | 0.00 | 0.00 | 92 | 1005.6 |
| 20260510041346 | 76 | 74 | 0.0 | 0.0 | 0.00 | 0.00 | 0.00 | 92 | 1005.6 |
| 20260510041315 | 75 | 38 | 0.0 | 0.0 | 0.00 | 0.00 | 0.00 | 92 | 1005.6 |
| 20260510040346 | 75 | 16 | 0.0 | 0.0 | 0.00 | 0.00 | 0.00 | 92 | 1005.6 |
| 20260510040315 | 75 | 16 | 0.0 | 0.0 | 0.00 | 0.00 | 0.00 | 92 | 1005.6 |
| 20260510035345 | 75 | 56 | 1.0 | 0.0 | 0.00 | 0.00 | 0.00 | 93 | 1005.6 |
| 20260510035314 | 75 | 56 | 1.0 | 0.0 | 0.00 | 0.00 | 0.00 | 93 | 1005.6 |
| 20260510034345 | 75 | 56 | 0.0 | 0.0 | 0.00 | 0.00 | 0.00 | 93 | 1005.6 |
| 20260510034313 | 75 | 56 | 0.0 | 0.0 | 0.00 | 0.00 | 0.00 | 93 | 1005.6 |
| 20260510033344 | 75 | 42 | 0.0 | 0.0 | 0.00 | 0.00 | 0.00 | 93 | 1005.6 |
| 20260510033313 | 75 | 47 | 0.0 | 0.0 | 0.00 | 0.00 | 0.00 | 93 | 1005.6 |
| 20260510032344 | 75 | 66 | 1.0 | 0.0 | 0.00 | 0.00 | 0.00 | 93 | 1005.6 |
| 20260510032312 | 75 | 25 | 0.0 | 0.0 | 0.00 | 0.00 | 0.00 | 93 | 1005.6 |
| 20260510031343 | 75 | 46 | 1.0 | 0.0 | 0.00 | 0.00 | 0.00 | 92 | 1005.6 |
| 20260510031312 | 75 | 53 | 0.0 | 0.0 | 0.00 | 0.00 | 0.00 | 92 | 1005.6 |
| 20260510030342 | 75 | 47 | 0.0 | 0.0 | 0.00 | 0.00 | 0.00 | 91 | 1005.6 |
| 20260510030311 | 75 | 47 | 0.0 | 0.0 | 0.00 | 0.00 | 0.00 | 91 | 1005.6 |
| 20260510025342 | 76 | 28 | 1.0 | 0.0 | 0.00 | 0.00 | 0.00 | 91 | 1005.6 |
| 20260510025311 | 76 | 28 | 1.0 | 0.0 | 0.00 | 0.00 | 0.00 | 91 | 1005.6 |
| 20260510024341 | 76 | 46 | 1.0 | 0.0 | 0.00 | 0.00 | 0.00 | 90 | 1005.6 |
| 20260510024310 | 76 | 46 | 1.0 | 0.0 | 0.00 | 0.00 | 0.00 | 90 | 1005.6 |
| 20260510023341 | 76 | 25 | 1.0 | 0.0 | 0.00 | 0.00 | 0.00 | 90 | 1005.6 |
| 20260510023310 | 76 | 0 | 1.0 | 0.0 | 0.00 | 0.00 | 0.00 | 90 | 1005.6 |
| 20260510022340 | 76 | 356 | 1.0 | 0.0 | 0.00 | 0.00 | 0.00 | 90 | 1005.3 |
| 20260510022309 | 76 | 42 | 1.0 | 0.0 | 0.00 | 0.00 | 0.00 | 89 | 1005.3 |
| 20260510021339 | 76 | 4 | 0.0 | 0.0 | 0.00 | 0.00 | 0.00 | 89 | 1005.3 |
| 20260510021308 | 76 | 4 | 0.0 | 0.0 | 0.00 | 0.00 | 0.00 | 89 | 1005.3 |
| 20260510020339 | 76 | 130 | 1.0 | 0.0 | 0.00 | 0.00 | 0.00 | 89 | 1005.3 |
| 20260510020308 | 76 | 130 | 1.0 | 0.0 | 0.00 | 0.00 | 0.00 | 89 | 1005.3 |
| 20260510015338 | 76 | 21 | 1.0 | 0.0 | 0.00 | 0.00 | 0.00 | 89 | 1005.3 |
| 20260510015307 | 76 | 21 | 1.0 | 0.0 | 0.00 | 0.00 | 0.00 | 89 | 1005.3 |
| 20260510014338 | 76 | 66 | 1.0 | 0.0 | 0.00 | 0.00 | 0.00 | 88 | 1005.3 |
| 20260510014306 | 76 | 66 | 1.0 | 0.0 | 0.00 | 0.00 | 0.00 | 88 | 1005.3 |
| 20260510013337 | 76 | 70 | 1.0 | 0.0 | 0.00 | 0.00 | 0.00 | 88 | 1005.3 |
| 20260510013306 | 76 | 157 | 1.0 | 0.0 | 0.00 | 0.00 | 0.00 | 88 | 1005.3 |
| 20260510012336 | 76 | 26 | 0.0 | 0.0 | 0.00 | 0.00 | 0.00 | 87 | 1005.3 |
| 20260510012307 | 76 | 106 | 1.0 | 0.0 | 0.00 | 0.00 | 0.00 | 87 | 1005.3 |
| 20260510011336 | 77 | 11 | 2.0 | 0.0 | 0.00 | 0.00 | 0.00 | 85 | 1005.3 |
| 20260510011304 | 77 | 11 | 2.0 | 0.0 | 0.00 | 0.00 | 0.00 | 85 | 1005.3 |
| 20260510010335 | 77 | 49 | 2.0 | 0.0 | 0.00 | 0.00 | 0.00 | 85 | 1004.9 |
| 20260510010303 | 77 | 49 | 2.0 | 0.0 | 0.00 | 0.00 | 0.00 | 85 | 1004.9 |
| 20260510005335 | 76 | 13 | 1.0 | 0.0 | 0.00 | 0.00 | 0.00 | 84 | 1004.9 |
| 20260510005306 | 76 | 13 | 1.0 | 0.0 | 0.00 | 0.00 | 0.00 | 84 | 1004.9 |
| 20260510004334 | 76 | 73 | 2.0 | 0.0 | 0.00 | 0.00 | 0.00 | 87 | 1004.6 |
| 20260510004301 | 76 | 29 | 2.0 | 0.0 | 0.00 | 0.00 | 0.00 | 86 | 1004.6 |
| 20260510003333 | 76 | 21 | 1.0 | 0.0 | 0.00 | 0.00 | 0.00 | 88 | 1003.6 |
| 20260510003300 | 76 | 43 | 2.0 | 0.0 | 0.00 | 0.00 | 0.00 | 88 | 1003.6 |
| 20260510002333 | 76 | 72 | 3.0 | 0.0 | 0.00 | 0.00 | 0.00 | 89 | 1003.6 |
| 20260510002259 | 76 | 44 | 1.0 | 0.0 | 0.00 | 0.00 | 0.00 | 89 | 1003.6 |
| 20260510001332 | 76 | 4 | 1.0 | 0.0 | 0.00 | 0.00 | 0.00 | 88 | 1003.6 |
| 20260510001259 | 76 | 4 | 1.0 | 0.0 | 0.00 | 0.00 | 0.00 | 88 | 1003.6 |
| 20260510000333 | 75 | 37 | 3.0 | 0.0 | 0.00 | 0.00 | 0.00 | 89 | 1003.6 |
| 20260510000258 | 75 | 37 | 3.0 | 0.0 | 0.00 | 0.00 | 0.00 | 89 | 1003.6 |
| 20260509235331 | 76 | 86 | 4.0 | 0.0 | 0.00 | 0.00 | 0.00 | 91 | 1003.2 |
| 20260509235257 | 76 | 86 | 4.0 | 0.0 | 0.00 | 0.00 | 0.00 | 91 | 1003.2 |
| 20260509234330 | 76 | 285 | 2.0 | 0.0 | 0.00 | 0.00 | 0.00 | 89 | 1003.2 |
| 20260509234257 | 76 | 327 | 2.0 | 0.0 | 0.00 | 0.00 | 0.00 | 88 | 1003.2 |
| 20260509233330 | 78 | 35 | 2.0 | 0.0 | 0.00 | 0.00 | 0.00 | 85 | 1002.9 |
| 20260509232329 | 78 | 330 | 4.0 | 0.0 | 0.00 | 0.00 | 0.00 | 84 | 1003.2 |
| 20260509232256 | 78 | 32 | 4.0 | 0.0 | 0.00 | 0.00 | 0.00 | 85 | 1003.2 |
| 20260509231329 | 78 | 328 | 3.0 | 0.0 | 0.00 | 0.00 | 0.00 | 86 | 1003.2 |
| 20260509231256 | 78 | 328 | 3.0 | 0.0 | 0.00 | 0.00 | 0.00 | 86 | 1003.2 |